sensor_id;sensor_type;location;lat;lon;timestamp;temperature;humidity
54622;DHT22;40521;53.146;6.556;2023-07-20T00:01:12;15.00;99.90
54622;DHT22;40521;53.146;6.556;2023-07-20T00:03:46;15.20;99.90
54622;DHT22;40521;53.146;6.556;2023-07-20T00:06:20;14.90;99.90
54622;DHT22;40521;53.146;6.556;2023-07-20T00:12:24;14.90;99.90
54622;DHT22;40521;53.146;6.556;2023-07-20T00:14:52;14.90;99.90
54622;DHT22;40521;53.146;6.556;2023-07-20T00:17:21;14.90;99.90
54622;DHT22;40521;53.146;6.556;2023-07-20T00:19:50;14.90;99.90
54622;DHT22;40521;53.146;6.556;2023-07-20T00:22:18;14.90;99.90
54622;DHT22;40521;53.146;6.556;2023-07-20T00:24:55;14.80;99.90
54622;DHT22;40521;53.146;6.556;2023-07-20T00:27:26;14.80;99.90
54622;DHT22;40521;53.146;6.556;2023-07-20T00:29:57;14.90;99.90
54622;DHT22;40521;53.146;6.556;2023-07-20T00:32:25;14.90;99.90
54622;DHT22;40521;53.146;6.556;2023-07-20T00:35:05;14.90;99.90
54622;DHT22;40521;53.146;6.556;2023-07-20T00:37:36;14.90;99.90
54622;DHT22;40521;53.146;6.556;2023-07-20T00:40:02;14.90;99.90
54622;DHT22;40521;53.146;6.556;2023-07-20T00:42:38;14.80;99.90
54622;DHT22;40521;53.146;6.556;2023-07-20T00:45:05;15.00;99.90
54622;DHT22;40521;53.146;6.556;2023-07-20T00:50:34;14.70;99.90
54622;DHT22;40521;53.146;6.556;2023-07-20T00:53:11;14.70;99.90
54622;DHT22;40521;53.146;6.556;2023-07-20T00:56:26;14.60;99.90
54622;DHT22;40521;53.146;6.556;2023-07-20T00:59:00;14.60;99.90
54622;DHT22;40521;53.146;6.556;2023-07-20T01:01:36;14.60;99.90
54622;DHT22;40521;53.146;6.556;2023-07-20T01:04:04;14.50;99.90
54622;DHT22;40521;53.146;6.556;2023-07-20T01:12:35;14.20;99.90
54622;DHT22;40521;53.146;6.556;2023-07-20T01:15:01;14.10;99.90
54622;DHT22;40521;53.146;6.556;2023-07-20T01:17:40;14.00;99.90
54622;DHT22;40521;53.146;6.556;2023-07-20T01:20:16;14.00;99.90
54622;DHT22;40521;53.146;6.556;2023-07-20T01:33:20;13.80;99.90
54622;DHT22;40521;53.146;6.556;2023-07-20T01:35:46;13.70;99.90
54622;DHT22;40521;53.146;6.556;2023-07-20T01:38:21;13.60;99.90
54622;DHT22;40521;53.146;6.556;2023-07-20T01:40:47;13.60;99.90
54622;DHT22;40521;53.146;6.556;2023-07-20T01:43:33;13.50;99.90
54622;DHT22;40521;53.146;6.556;2023-07-20T01:46:04;13.50;99.90
54622;DHT22;40521;53.146;6.556;2023-07-20T01:48:30;13.40;99.90
54622;DHT22;40521;53.146;6.556;2023-07-20T01:50:58;13.30;99.90
54622;DHT22;40521;53.146;6.556;2023-07-20T01:53:29;13.70;99.90
54622;DHT22;40521;53.146;6.556;2023-07-20T01:55:56;13.20;99.90
54622;DHT22;40521;53.146;6.556;2023-07-20T01:58:21;12.90;99.90
54622;DHT22;40521;53.146;6.556;2023-07-20T02:00:50;13.10;99.90
54622;DHT22;40521;53.146;6.556;2023-07-20T02:03:18;12.90;99.90
54622;DHT22;40521;53.146;6.556;2023-07-20T02:05:54;12.60;99.90
54622;DHT22;40521;53.146;6.556;2023-07-20T02:08:40;12.70;99.90
54622;DHT22;40521;53.146;6.556;2023-07-20T02:11:08;12.70;99.90
54622;DHT22;40521;53.146;6.556;2023-07-20T02:13:35;12.60;99.90
54622;DHT22;40521;53.146;6.556;2023-07-20T02:16:04;12.60;99.90
54622;DHT22;40521;53.146;6.556;2023-07-20T02:18:30;12.60;99.90
54622;DHT22;40521;53.146;6.556;2023-07-20T02:21:05;12.60;99.90
54622;DHT22;40521;53.146;6.556;2023-07-20T02:23:34;13.00;99.90
54622;DHT22;40521;53.146;6.556;2023-07-20T02:33:15;12.30;99.90
54622;DHT22;40521;53.146;6.556;2023-07-20T02:35:43;11.80;99.90
54622;DHT22;40521;53.146;6.556;2023-07-20T02:38:26;11.90;99.90
54622;DHT22;40521;53.146;6.556;2023-07-20T02:40:52;11.40;99.90
54622;DHT22;40521;53.146;6.556;2023-07-20T02:43:18;12.10;99.90
54622;DHT22;40521;53.146;6.556;2023-07-20T02:45:47;12.10;99.90
54622;DHT22;40521;53.146;6.556;2023-07-20T02:48:21;12.10;99.90
54622;DHT22;40521;53.146;6.556;2023-07-20T02:50:49;12.10;99.90
54622;DHT22;40521;53.146;6.556;2023-07-20T02:53:31;11.70;99.90
54622;DHT22;40521;53.146;6.556;2023-07-20T02:56:07;12.10;99.90
54622;DHT22;40521;53.146;6.556;2023-07-20T02:58:44;12.10;99.90
54622;DHT22;40521;53.146;6.556;2023-07-20T03:01:13;12.10;99.90
54622;DHT22;40521;53.146;6.556;2023-07-20T03:03:43;12.00;99.90
54622;DHT22;40521;53.146;6.556;2023-07-20T03:06:17;12.00;99.90
54622;DHT22;40521;53.146;6.556;2023-07-20T03:08:46;11.90;99.90
54622;DHT22;40521;53.146;6.556;2023-07-20T03:11:14;11.00;99.90
54622;DHT22;40521;53.146;6.556;2023-07-20T03:14:02;11.30;99.90
54622;DHT22;40521;53.146;6.556;2023-07-20T03:16:38;11.70;99.90
54622;DHT22;40521;53.146;6.556;2023-07-20T03:19:21;11.70;99.90
54622;DHT22;40521;53.146;6.556;2023-07-20T03:21:55;11.70;99.90
54622;DHT22;40521;53.146;6.556;2023-07-20T03:24:21;11.70;99.90
54622;DHT22;40521;53.146;6.556;2023-07-20T03:26:59;11.70;99.90
54622;DHT22;40521;53.146;6.556;2023-07-20T03:29:35;11.70;99.90
54622;DHT22;40521;53.146;6.556;2023-07-20T03:32:08;11.10;99.90
54622;DHT22;40521;53.146;6.556;2023-07-20T03:34:34;11.70;99.90
54622;DHT22;40521;53.146;6.556;2023-07-20T03:37:05;11.70;99.90
54622;DHT22;40521;53.146;6.556;2023-07-20T03:39:32;11.70;99.90
54622;DHT22;40521;53.146;6.556;2023-07-20T03:41:58;10.90;99.90
54622;DHT22;40521;53.146;6.556;2023-07-20T03:44:24;11.70;99.90
54622;DHT22;40521;53.146;6.556;2023-07-20T03:46:53;11.70;99.90
54622;DHT22;40521;53.146;6.556;2023-07-20T03:49:36;11.60;99.90
54622;DHT22;40521;53.146;6.556;2023-07-20T03:52:07;11.60;99.90
54622;DHT22;40521;53.146;6.556;2023-07-20T03:54:33;11.60;99.90
54622;DHT22;40521;53.146;6.556;2023-07-20T03:56:58;11.70;99.90
54622;DHT22;40521;53.146;6.556;2023-07-20T03:59:30;11.70;99.90
54622;DHT22;40521;53.146;6.556;2023-07-20T04:02:00;11.80;99.90
54622;DHT22;40521;53.146;6.556;2023-07-20T04:04:26;11.60;99.90
54622;DHT22;40521;53.146;6.556;2023-07-20T04:07:06;11.60;99.90
54622;DHT22;40521;53.146;6.556;2023-07-20T04:09:32;11.60;99.90
54622;DHT22;40521;53.146;6.556;2023-07-20T04:11:58;11.60;99.90
54622;DHT22;40521;53.146;6.556;2023-07-20T04:14:24;11.70;99.90
54622;DHT22;40521;53.146;6.556;2023-07-20T04:16:55;11.60;99.90
54622;DHT22;40521;53.146;6.556;2023-07-20T04:19:34;11.70;99.90
54622;DHT22;40521;53.146;6.556;2023-07-20T04:21:59;11.60;99.90
54622;DHT22;40521;53.146;6.556;2023-07-20T04:24:37;11.40;99.90
54622;DHT22;40521;53.146;6.556;2023-07-20T04:27:05;11.60;99.90
54622;DHT22;40521;53.146;6.556;2023-07-20T04:29:40;11.60;99.90
54622;DHT22;40521;53.146;6.556;2023-07-20T04:32:06;11.60;99.90
54622;DHT22;40521;53.146;6.556;2023-07-20T04:34:35;11.60;99.90
54622;DHT22;40521;53.146;6.556;2023-07-20T04:37:05;11.60;99.90
54622;DHT22;40521;53.146;6.556;2023-07-20T04:39:43;11.60;99.90
54622;DHT22;40521;53.146;6.556;2023-07-20T04:42:11;11.40;99.90
54622;DHT22;40521;53.146;6.556;2023-07-20T04:44:39;11.60;99.90
54622;DHT22;40521;53.146;6.556;2023-07-20T04:47:07;11.60;99.90
54622;DHT22;40521;53.146;6.556;2023-07-20T04:49:36;11.60;99.90
54622;DHT22;40521;53.146;6.556;2023-07-20T04:52:07;11.70;99.90
54622;DHT22;40521;53.146;6.556;2023-07-20T04:54:59;11.80;99.90
54622;DHT22;40521;53.146;6.556;2023-07-20T04:57:25;11.90;99.90
54622;DHT22;40521;53.146;6.556;2023-07-20T04:59:57;12.00;99.90
54622;DHT22;40521;53.146;6.556;2023-07-20T05:02:22;11.80;99.90
54622;DHT22;40521;53.146;6.556;2023-07-20T05:04:48;12.20;99.90
54622;DHT22;40521;53.146;6.556;2023-07-20T05:07:19;12.20;99.90
54622;DHT22;40521;53.146;6.556;2023-07-20T05:09:53;12.20;99.90
54622;DHT22;40521;53.146;6.556;2023-07-20T05:12:21;12.30;99.90
54622;DHT22;40521;53.146;6.556;2023-07-20T05:14:49;12.40;99.90
54622;DHT22;40521;53.146;6.556;2023-07-20T05:20:05;12.50;99.90
54622;DHT22;40521;53.146;6.556;2023-07-20T05:22:34;12.60;99.90
54622;DHT22;40521;53.146;6.556;2023-07-20T05:25:07;12.60;99.90
54622;DHT22;40521;53.146;6.556;2023-07-20T05:27:44;12.60;99.90
54622;DHT22;40521;53.146;6.556;2023-07-20T05:30:13;12.70;99.90
54622;DHT22;40521;53.146;6.556;2023-07-20T05:32:59;12.70;99.90
54622;DHT22;40521;53.146;6.556;2023-07-20T05:35:30;12.50;99.90
54622;DHT22;40521;53.146;6.556;2023-07-20T05:38:03;12.80;99.90
54622;DHT22;40521;53.146;6.556;2023-07-20T05:40:35;12.90;99.90
54622;DHT22;40521;53.146;6.556;2023-07-20T05:43:10;13.00;99.90
54622;DHT22;40521;53.146;6.556;2023-07-20T05:45:41;13.00;99.90
54622;DHT22;40521;53.146;6.556;2023-07-20T05:48:13;12.70;99.90
54622;DHT22;40521;53.146;6.556;2023-07-20T05:50:46;13.10;99.90
54622;DHT22;40521;53.146;6.556;2023-07-20T05:53:29;13.50;99.90
54622;DHT22;40521;53.146;6.556;2023-07-20T05:56:00;13.30;99.90
54622;DHT22;40521;53.146;6.556;2023-07-20T05:58:36;13.10;99.90
54622;DHT22;40521;53.146;6.556;2023-07-20T06:01:04;13.40;99.90
54622;DHT22;40521;53.146;6.556;2023-07-20T06:03:33;12.80;99.90
54622;DHT22;40521;53.146;6.556;2023-07-20T06:06:08;13.60;99.90
54622;DHT22;40521;53.146;6.556;2023-07-20T06:08:39;13.60;99.90
54622;DHT22;40521;53.146;6.556;2023-07-20T06:11:07;13.50;99.90
54622;DHT22;40521;53.146;6.556;2023-07-20T06:13:36;13.70;99.90
54622;DHT22;40521;53.146;6.556;2023-07-20T06:16:02;13.80;99.90
54622;DHT22;40521;53.146;6.556;2023-07-20T06:18:29;13.80;99.90
54622;DHT22;40521;53.146;6.556;2023-07-20T06:21:02;13.90;99.90
54622;DHT22;40521;53.146;6.556;2023-07-20T06:23:47;13.90;99.90
54622;DHT22;40521;53.146;6.556;2023-07-20T06:26:16;14.00;99.90
54622;DHT22;40521;53.146;6.556;2023-07-20T06:28:41;14.00;99.90
54622;DHT22;40521;53.146;6.556;2023-07-20T06:31:30;14.10;99.90
54622;DHT22;40521;53.146;6.556;2023-07-20T06:37:06;14.20;99.90
54622;DHT22;40521;53.146;6.556;2023-07-20T06:39:34;14.30;99.90
54622;DHT22;40521;53.146;6.556;2023-07-20T06:42:02;14.30;99.90
54622;DHT22;40521;53.146;6.556;2023-07-20T06:44:33;14.40;99.90
54622;DHT22;40521;53.146;6.556;2023-07-20T06:47:04;13.70;99.90
54622;DHT22;40521;53.146;6.556;2023-07-20T06:49:29;14.50;99.90
54622;DHT22;40521;53.146;6.556;2023-07-20T06:51:58;14.60;99.90
54622;DHT22;40521;53.146;6.556;2023-07-20T06:54:26;14.70;99.90
54622;DHT22;40521;53.146;6.556;2023-07-20T06:56:54;14.70;99.90
54622;DHT22;40521;53.146;6.556;2023-07-20T06:59:22;14.70;99.90
54622;DHT22;40521;53.146;6.556;2023-07-20T07:01:52;14.80;99.90
54622;DHT22;40521;53.146;6.556;2023-07-20T07:04:20;14.90;99.90
54622;DHT22;40521;53.146;6.556;2023-07-20T07:06:48;14.90;99.90
54622;DHT22;40521;53.146;6.556;2023-07-20T07:09:23;14.90;99.90
54622;DHT22;40521;53.146;6.556;2023-07-20T07:11:56;15.00;99.90
54622;DHT22;40521;53.146;6.556;2023-07-20T07:14:22;15.00;99.90
54622;DHT22;40521;53.146;6.556;2023-07-20T07:16:48;15.10;99.90
54622;DHT22;40521;53.146;6.556;2023-07-20T07:19:14;15.20;99.90
54622;DHT22;40521;53.146;6.556;2023-07-20T07:21:39;15.30;99.90
54622;DHT22;40521;53.146;6.556;2023-07-20T07:24:05;15.30;99.90
54622;DHT22;40521;53.146;6.556;2023-07-20T07:26:33;15.30;99.90
54622;DHT22;40521;53.146;6.556;2023-07-20T07:29:10;15.40;99.90
54622;DHT22;40521;53.146;6.556;2023-07-20T07:31:35;15.00;99.90
54622;DHT22;40521;53.146;6.556;2023-07-20T07:34:02;15.50;99.90
54622;DHT22;40521;53.146;6.556;2023-07-20T07:36:28;15.50;99.90
54622;DHT22;40521;53.146;6.556;2023-07-20T07:38:53;15.60;99.90
54622;DHT22;40521;53.146;6.556;2023-07-20T07:41:19;15.70;99.90
54622;DHT22;40521;53.146;6.556;2023-07-20T07:43:48;15.80;99.90
54622;DHT22;40521;53.146;6.556;2023-07-20T07:46:14;16.00;99.90
54622;DHT22;40521;53.146;6.556;2023-07-20T07:48:42;15.70;99.90
54622;DHT22;40521;53.146;6.556;2023-07-20T07:51:10;16.20;99.90
54622;DHT22;40521;53.146;6.556;2023-07-20T07:53:45;16.20;99.90
54622;DHT22;40521;53.146;6.556;2023-07-20T07:56:13;16.20;99.90
54622;DHT22;40521;53.146;6.556;2023-07-20T07:58:42;15.90;99.90
54622;DHT22;40521;53.146;6.556;2023-07-20T08:01:07;16.40;99.90
54622;DHT22;40521;53.146;6.556;2023-07-20T08:03:38;16.50;99.90
54622;DHT22;40521;53.146;6.556;2023-07-20T08:06:04;16.50;99.90
54622;DHT22;40521;53.146;6.556;2023-07-20T08:08:30;16.70;99.90
54622;DHT22;40521;53.146;6.556;2023-07-20T08:10:56;16.80;99.90
54622;DHT22;40521;53.146;6.556;2023-07-20T08:13:22;16.80;99.90
54622;DHT22;40521;53.146;6.556;2023-07-20T08:15:53;16.90;99.90
54622;DHT22;40521;53.146;6.556;2023-07-20T08:18:19;17.00;99.90
54622;DHT22;40521;53.146;6.556;2023-07-20T08:20:47;17.20;99.90
54622;DHT22;40521;53.146;6.556;2023-07-20T08:23:13;17.30;99.90
54622;DHT22;40521;53.146;6.556;2023-07-20T08:25:41;17.50;99.90
54622;DHT22;40521;53.146;6.556;2023-07-20T08:28:10;17.50;99.90
54622;DHT22;40521;53.146;6.556;2023-07-20T08:30:45;17.50;99.90
54622;DHT22;40521;53.146;6.556;2023-07-20T08:33:15;17.00;99.90
54622;DHT22;40521;53.146;6.556;2023-07-20T08:35:41;17.30;99.90
54622;DHT22;40521;53.146;6.556;2023-07-20T08:38:07;17.30;99.90
54622;DHT22;40521;53.146;6.556;2023-07-20T08:40:39;17.30;99.90
54622;DHT22;40521;53.146;6.556;2023-07-20T08:43:05;17.30;99.90
54622;DHT22;40521;53.146;6.556;2023-07-20T08:45:32;17.40;99.90
54622;DHT22;40521;53.146;6.556;2023-07-20T08:48:02;17.60;99.90
54622;DHT22;40521;53.146;6.556;2023-07-20T08:50:30;17.50;99.90
54622;DHT22;40521;53.146;6.556;2023-07-20T08:52:58;17.70;99.90
54622;DHT22;40521;53.146;6.556;2023-07-20T08:55:27;17.70;99.90
54622;DHT22;40521;53.146;6.556;2023-07-20T08:57:57;17.70;99.90
54622;DHT22;40521;53.146;6.556;2023-07-20T09:00:23;17.60;99.90
54622;DHT22;40521;53.146;6.556;2023-07-20T09:02:57;17.60;99.90
54622;DHT22;40521;53.146;6.556;2023-07-20T09:05:25;17.60;99.90
54622;DHT22;40521;53.146;6.556;2023-07-20T09:07:51;17.50;99.90
54622;DHT22;40521;53.146;6.556;2023-07-20T09:10:17;17.60;99.90
54622;DHT22;40521;53.146;6.556;2023-07-20T09:12:43;17.70;99.90
54622;DHT22;40521;53.146;6.556;2023-07-20T09:15:12;17.80;99.90
54622;DHT22;40521;53.146;6.556;2023-07-20T09:17:37;17.90;99.90
54622;DHT22;40521;53.146;6.556;2023-07-20T09:20:04;18.00;99.90
54622;DHT22;40521;53.146;6.556;2023-07-20T09:22:36;18.20;99.90
54622;DHT22;40521;53.146;6.556;2023-07-20T09:25:14;18.20;99.90
54622;DHT22;40521;53.146;6.556;2023-07-20T09:27:43;18.30;99.90
54622;DHT22;40521;53.146;6.556;2023-07-20T09:30:10;18.50;99.90
54622;DHT22;40521;53.146;6.556;2023-07-20T09:32:46;18.70;99.90
54622;DHT22;40521;53.146;6.556;2023-07-20T09:35:15;18.70;99.90
54622;DHT22;40521;53.146;6.556;2023-07-20T09:37:46;18.60;99.90
54622;DHT22;40521;53.146;6.556;2023-07-20T09:40:14;18.60;99.90
54622;DHT22;40521;53.146;6.556;2023-07-20T09:42:39;18.70;99.90
54622;DHT22;40521;53.146;6.556;2023-07-20T09:45:08;18.80;99.90
54622;DHT22;40521;53.146;6.556;2023-07-20T09:47:40;18.70;99.90
54622;DHT22;40521;53.146;6.556;2023-07-20T09:50:07;18.60;99.90
54622;DHT22;40521;53.146;6.556;2023-07-20T09:52:39;18.60;99.90
54622;DHT22;40521;53.146;6.556;2023-07-20T09:55:12;18.40;99.90
54622;DHT22;40521;53.146;6.556;2023-07-20T09:57:38;18.40;99.90
54622;DHT22;40521;53.146;6.556;2023-07-20T10:00:07;18.40;99.90
54622;DHT22;40521;53.146;6.556;2023-07-20T10:02:40;18.40;99.90
54622;DHT22;40521;53.146;6.556;2023-07-20T10:05:06;18.60;99.90
54622;DHT22;40521;53.146;6.556;2023-07-20T10:07:35;18.80;99.90
54622;DHT22;40521;53.146;6.556;2023-07-20T10:10:02;19.00;99.90
54622;DHT22;40521;53.146;6.556;2023-07-20T10:12:34;19.00;99.90
54622;DHT22;40521;53.146;6.556;2023-07-20T10:15:08;19.00;99.90
54622;DHT22;40521;53.146;6.556;2023-07-20T10:17:45;19.10;99.90
54622;DHT22;40521;53.146;6.556;2023-07-20T10:20:16;19.60;99.90
54622;DHT22;40521;53.146;6.556;2023-07-20T10:22:45;19.60;99.90
54622;DHT22;40521;53.146;6.556;2023-07-20T10:25:13;19.70;99.90
54622;DHT22;40521;53.146;6.556;2023-07-20T10:27:40;19.60;99.90
54622;DHT22;40521;53.146;6.556;2023-07-20T10:30:08;19.30;99.90
54622;DHT22;40521;53.146;6.556;2023-07-20T10:32:33;19.20;99.90
54622;DHT22;40521;53.146;6.556;2023-07-20T10:34:59;19.30;99.90
54622;DHT22;40521;53.146;6.556;2023-07-20T10:40:26;19.70;99.90
54622;DHT22;40521;53.146;6.556;2023-07-20T10:42:56;19.90;99.90
54622;DHT22;40521;53.146;6.556;2023-07-20T10:45:32;20.20;99.90
54622;DHT22;40521;53.146;6.556;2023-07-20T10:47:58;20.40;99.90
54622;DHT22;40521;53.146;6.556;2023-07-20T10:50:24;20.30;99.90
54622;DHT22;40521;53.146;6.556;2023-07-20T10:53:16;20.20;99.90
54622;DHT22;40521;53.146;6.556;2023-07-20T10:55:49;20.10;99.90
54622;DHT22;40521;53.146;6.556;2023-07-20T10:58:31;19.90;99.90
54622;DHT22;40521;53.146;6.556;2023-07-20T11:00:57;19.90;99.90
54622;DHT22;40521;53.146;6.556;2023-07-20T11:03:29;19.90;99.90
54622;DHT22;40521;53.146;6.556;2023-07-20T11:05:58;20.20;99.90
54622;DHT22;40521;53.146;6.556;2023-07-20T11:08:40;20.40;99.90
54622;DHT22;40521;53.146;6.556;2023-07-20T11:16:43;20.10;99.90
54622;DHT22;40521;53.146;6.556;2023-07-20T11:19:23;20.10;99.90
54622;DHT22;40521;53.146;6.556;2023-07-20T11:21:58;20.30;99.90
54622;DHT22;40521;53.146;6.556;2023-07-20T11:24:26;20.30;99.90
54622;DHT22;40521;53.146;6.556;2023-07-20T11:26:54;20.10;99.90
54622;DHT22;40521;53.146;6.556;2023-07-20T11:29:21;20.00;99.90
54622;DHT22;40521;53.146;6.556;2023-07-20T11:31:56;20.00;99.90
54622;DHT22;40521;53.146;6.556;2023-07-20T11:34:25;20.10;99.90
54622;DHT22;40521;53.146;6.556;2023-07-20T11:36:55;20.00;99.90
54622;DHT22;40521;53.146;6.556;2023-07-20T11:39:24;20.30;99.90
54622;DHT22;40521;53.146;6.556;2023-07-20T11:41:54;20.60;99.90
54622;DHT22;40521;53.146;6.556;2023-07-20T11:44:23;20.90;99.90
54622;DHT22;40521;53.146;6.556;2023-07-20T11:47:17;21.20;99.90
54622;DHT22;40521;53.146;6.556;2023-07-20T11:49:43;21.30;98.50
54622;DHT22;40521;53.146;6.556;2023-07-20T11:52:16;21.30;99.30
54622;DHT22;40521;53.146;6.556;2023-07-20T11:54:47;21.20;99.30
54622;DHT22;40521;53.146;6.556;2023-07-20T11:57:18;21.10;98.90
54622;DHT22;40521;53.146;6.556;2023-07-20T11:59:54;20.80;98.80
54622;DHT22;40521;53.146;6.556;2023-07-20T12:02:26;20.60;99.60
54622;DHT22;40521;53.146;6.556;2023-07-20T12:04:55;20.60;98.20
54622;DHT22;40521;53.146;6.556;2023-07-20T12:07:25;20.50;98.80
54622;DHT22;40521;53.146;6.556;2023-07-20T12:10:05;20.40;99.60
54622;DHT22;40521;53.146;6.556;2023-07-20T12:12:37;20.40;99.90
54622;DHT22;40521;53.146;6.556;2023-07-20T12:15:16;20.20;99.50
54622;DHT22;40521;53.146;6.556;2023-07-20T12:17:43;20.10;99.90
54622;DHT22;40521;53.146;6.556;2023-07-20T12:20:09;20.20;99.90
54622;DHT22;40521;53.146;6.556;2023-07-20T12:22:43;20.30;99.90
54622;DHT22;40521;53.146;6.556;2023-07-20T12:25:11;20.50;99.90
54622;DHT22;40521;53.146;6.556;2023-07-20T12:27:37;20.60;99.30
54622;DHT22;40521;53.146;6.556;2023-07-20T12:30:05;20.90;99.30
54622;DHT22;40521;53.146;6.556;2023-07-20T12:32:34;21.10;98.40
54622;DHT22;40521;53.146;6.556;2023-07-20T12:35:00;21.10;99.40
54622;DHT22;40521;53.146;6.556;2023-07-20T12:37:26;21.10;99.50
54622;DHT22;40521;53.146;6.556;2023-07-20T12:39:59;21.10;97.90
54622;DHT22;40521;53.146;6.556;2023-07-20T12:42:30;20.90;99.20
54622;DHT22;40521;53.146;6.556;2023-07-20T12:44:55;20.80;98.90
54622;DHT22;40521;53.146;6.556;2023-07-20T12:47:24;20.40;99.50
54622;DHT22;40521;53.146;6.556;2023-07-20T12:49:52;20.10;99.90
54622;DHT22;40521;53.146;6.556;2023-07-20T12:52:20;19.70;99.90
54622;DHT22;40521;53.146;6.556;2023-07-20T12:54:46;19.60;99.90
54622;DHT22;40521;53.146;6.556;2023-07-20T12:57:19;19.40;99.90
54622;DHT22;40521;53.146;6.556;2023-07-20T12:59:55;19.20;99.90
54622;DHT22;40521;53.146;6.556;2023-07-20T13:02:42;19.10;99.90
54622;DHT22;40521;53.146;6.556;2023-07-20T13:05:10;19.00;99.90
54622;DHT22;40521;53.146;6.556;2023-07-20T13:07:37;19.10;99.90
54622;DHT22;40521;53.146;6.556;2023-07-20T13:10:11;19.30;99.90
54622;DHT22;40521;53.146;6.556;2023-07-20T13:12:37;19.70;99.90
54622;DHT22;40521;53.146;6.556;2023-07-20T13:15:06;20.00;99.90
54622;DHT22;40521;53.146;6.556;2023-07-20T13:17:35;20.20;99.90
54622;DHT22;40521;53.146;6.556;2023-07-20T13:20:01;20.40;99.90
54622;DHT22;40521;53.146;6.556;2023-07-20T13:22:28;20.60;99.90
54622;DHT22;40521;53.146;6.556;2023-07-20T13:27:34;21.00;99.90
54622;DHT22;40521;53.146;6.556;2023-07-20T13:30:03;21.30;99.90
54622;DHT22;40521;53.146;6.556;2023-07-20T13:32:32;21.50;99.90
54622;DHT22;40521;53.146;6.556;2023-07-20T13:35:00;21.60;99.90
54622;DHT22;40521;53.146;6.556;2023-07-20T13:37:26;21.60;97.90
54622;DHT22;40521;53.146;6.556;2023-07-20T13:39:56;21.60;99.90
54622;DHT22;40521;53.146;6.556;2023-07-20T13:42:29;21.50;99.90
54622;DHT22;40521;53.146;6.556;2023-07-20T13:44:57;21.60;99.80
54622;DHT22;40521;53.146;6.556;2023-07-20T13:47:23;21.60;99.90
54622;DHT22;40521;53.146;6.556;2023-07-20T13:50:06;21.60;98.60
54622;DHT22;40521;53.146;6.556;2023-07-20T13:52:34;21.80;99.50
54622;DHT22;40521;53.146;6.556;2023-07-20T13:55:03;21.40;98.60
54622;DHT22;40521;53.146;6.556;2023-07-20T13:57:33;21.30;99.50
54622;DHT22;40521;53.146;6.556;2023-07-20T14:00:04;21.40;98.90
54622;DHT22;40521;53.146;6.556;2023-07-20T14:02:31;21.20;97.40
54622;DHT22;40521;53.146;6.556;2023-07-20T14:04:59;21.20;97.70
54622;DHT22;40521;53.146;6.556;2023-07-20T14:07:28;21.00;97.90
54622;DHT22;40521;53.146;6.556;2023-07-20T14:09:53;20.90;98.30
54622;DHT22;40521;53.146;6.556;2023-07-20T14:12:19;20.90;98.60
54622;DHT22;40521;53.146;6.556;2023-07-20T14:14:47;20.80;99.80
54622;DHT22;40521;53.146;6.556;2023-07-20T14:17:17;20.90;97.50
54622;DHT22;40521;53.146;6.556;2023-07-20T14:19:46;21.00;99.00
54622;DHT22;40521;53.146;6.556;2023-07-20T14:22:14;21.10;98.70
54622;DHT22;40521;53.146;6.556;2023-07-20T14:24:39;21.30;98.90
54622;DHT22;40521;53.146;6.556;2023-07-20T14:27:05;21.40;99.50
54622;DHT22;40521;53.146;6.556;2023-07-20T14:29:31;21.60;99.90
54622;DHT22;40521;53.146;6.556;2023-07-20T14:31:58;21.70;97.90
54622;DHT22;40521;53.146;6.556;2023-07-20T14:34:28;21.70;96.80
54622;DHT22;40521;53.146;6.556;2023-07-20T14:36:54;21.60;96.50
54622;DHT22;40521;53.146;6.556;2023-07-20T14:39:20;21.50;98.00
54622;DHT22;40521;53.146;6.556;2023-07-20T14:41:46;21.60;97.30
54622;DHT22;40521;53.146;6.556;2023-07-20T14:44:11;21.60;97.80
54622;DHT22;40521;53.146;6.556;2023-07-20T14:46:37;21.70;97.10
54622;DHT22;40521;53.146;6.556;2023-07-20T14:49:03;21.80;96.80
54622;DHT22;40521;53.146;6.556;2023-07-20T14:51:28;21.70;96.90
54622;DHT22;40521;53.146;6.556;2023-07-20T14:53:58;21.70;97.60
54622;DHT22;40521;53.146;6.556;2023-07-20T14:56:27;21.70;96.50
54622;DHT22;40521;53.146;6.556;2023-07-20T14:58:53;21.60;95.90
54622;DHT22;40521;53.146;6.556;2023-07-20T15:01:18;21.50;97.20
54622;DHT22;40521;53.146;6.556;2023-07-20T15:03:44;21.60;98.10
54622;DHT22;40521;53.146;6.556;2023-07-20T15:06:20;21.60;97.40
54622;DHT22;40521;53.146;6.556;2023-07-20T15:08:46;21.70;97.50
54622;DHT22;40521;53.146;6.556;2023-07-20T15:11:11;21.80;97.20
54622;DHT22;40521;53.146;6.556;2023-07-20T15:13:39;21.90;97.50
54622;DHT22;40521;53.146;6.556;2023-07-20T15:16:26;21.90;97.10
54622;DHT22;40521;53.146;6.556;2023-07-20T15:18:53;21.80;96.40
54622;DHT22;40521;53.146;6.556;2023-07-20T15:21:19;21.70;97.10
54622;DHT22;40521;53.146;6.556;2023-07-20T15:23:48;21.70;97.20
54622;DHT22;40521;53.146;6.556;2023-07-20T15:26:13;21.60;97.10
54622;DHT22;40521;53.146;6.556;2023-07-20T15:28:40;21.50;96.30
54622;DHT22;40521;53.146;6.556;2023-07-20T15:31:08;21.40;96.50
54622;DHT22;40521;53.146;6.556;2023-07-20T15:33:36;21.40;96.10
54622;DHT22;40521;53.146;6.556;2023-07-20T15:36:02;21.40;96.60
54622;DHT22;40521;53.146;6.556;2023-07-20T15:38:28;21.40;96.80
54622;DHT22;40521;53.146;6.556;2023-07-20T15:40:54;21.30;96.80
54622;DHT22;40521;53.146;6.556;2023-07-20T15:43:30;21.10;96.10
54622;DHT22;40521;53.146;6.556;2023-07-20T15:46:01;21.00;97.70
54622;DHT22;40521;53.146;6.556;2023-07-20T15:48:39;20.80;97.00
54622;DHT22;40521;53.146;6.556;2023-07-20T15:51:08;20.80;97.00
54622;DHT22;40521;53.146;6.556;2023-07-20T15:53:46;20.80;97.90
54622;DHT22;40521;53.146;6.556;2023-07-20T15:56:12;20.70;97.90
54622;DHT22;40521;53.146;6.556;2023-07-20T15:58:41;20.80;97.90
54622;DHT22;40521;53.146;6.556;2023-07-20T16:01:06;20.80;97.90
54622;DHT22;40521;53.146;6.556;2023-07-20T16:03:35;21.00;97.30
54622;DHT22;40521;53.146;6.556;2023-07-20T16:06:01;21.20;97.00
54622;DHT22;40521;53.146;6.556;2023-07-20T16:08:30;21.30;97.10
54622;DHT22;40521;53.146;6.556;2023-07-20T16:11:07;21.40;95.90
54622;DHT22;40521;53.146;6.556;2023-07-20T16:13:32;21.30;95.50
54622;DHT22;40521;53.146;6.556;2023-07-20T16:16:16;21.20;96.60
54622;DHT22;40521;53.146;6.556;2023-07-20T16:19:02;21.10;97.90
54622;DHT22;40521;53.146;6.556;2023-07-20T16:21:30;20.90;97.20
54622;DHT22;40521;53.146;6.556;2023-07-20T16:24:01;20.80;97.50
54622;DHT22;40521;53.146;6.556;2023-07-20T16:26:32;20.60;97.30
54622;DHT22;40521;53.146;6.556;2023-07-20T16:28:58;20.50;97.80
54622;DHT22;40521;53.146;6.556;2023-07-20T16:31:26;20.40;97.40
54622;DHT22;40521;53.146;6.556;2023-07-20T16:33:52;20.30;98.00
54622;DHT22;40521;53.146;6.556;2023-07-20T16:36:21;20.30;97.80